LGIR

Heraklion International Nikos Kazantzakis Airport

Heraklion, Greece
TAF LGIR 232300Z 2400/2424 18008KT 9999 FEW025 SCT080 PROB40 TEMPO 2400/2422 5000 RA FEW010 BKN020 BKN080 PROB30 TEMPO 2400/2415 3000 TSRA SCT010 FEW018CB BKN020 BKN080 BECMG 2414/2416 33012KT
Issued Valid From Valid To
Oct-23 @ 23:00 UTC
(6 hours ago)
Oct-24 @ 00:00 UTC
(5 hours ago)
Oct-25 @ 00:00 UTC
(in 19 hours)
Oct-24 @ 00:00 to Oct-24 @ 14:00
TAF LGIR 232300Z 2400/2424 18008KT 9999 FEW025 SCT080
Wind Visibility Clouds
180° at 8 knots 10,000+ meters
  • Few at 2,500' AGL
  • Scattered at 8,000' AGL
Temporary  (Probability 30%) Oct-24 @ 00:00 to Oct-24 @ 15:00
PROB30 TEMPO 2400/2415 3000 TSRA SCT010 FEW018CB BKN020 BKN080
Visibility Clouds Conditions
2,993 meters
  • Scattered at 1,000' AGL
  • Few at 1,800' AGL
  • Broken at 2,000' AGL
  • Thunderstorm
  • Rain
Temporary  (Probability 40%) Oct-24 @ 00:00 to Oct-24 @ 22:00
PROB40 TEMPO 2400/2422 5000 RA FEW010 BKN020 BKN080
Visibility Clouds Conditions
5,005 meters
  • Few at 1,000' AGL
  • Broken at 2,000' AGL
  • Broken at 8,000' AGL
  • Rain
Becoming Oct-24 @ 14:00 to Oct-25 @ 00:00
BECMG 2414/2416 33012KT
Wind Visibility Clouds
330° at 12 knots 10,000+ meters
  • Few at 2,500' AGL
  • Scattered at 8,000' AGL
TAF LGIR 232300Z 2400/2424 18008KT 9999 FEW025 SCT080 PROB40 TEMPO 2400/2422 5000 RA FEW010 BKN020 BKN080 PROB30 TEMPO 2400/2415 3000 TSRA SCT010 FEW018CB BKN020 BKN080 BECMG 2414/2416 33012KT
Issued Oct-23 @ 23:00 UTC
(6 hours ago)
Valid From Oct-24 @ 00:00 UTC
(5 hours ago)
Valid To Oct-25 @ 00:00 UTC
(in 19 hours)
Oct-24 @ 00:00 - Oct-24 @ 14:00
Wind Visibility
180° at 8 knots 10,000+ meters
Clouds
  • Few at 2,500' AGL
  • Scattered at 8,000' AGL
Probability 30% Temporary Oct-24 @ 00:00 - Oct-24 @ 15:00
Clouds
  • Scattered at 1,000' AGL
  • Few at 1,800' AGL
  • Broken at 2,000' AGL
Conditions
  • Thunderstorm
  • Rain
Probability 40% Temporary Oct-24 @ 00:00 - Oct-24 @ 22:00
Clouds
  • Few at 1,000' AGL
  • Broken at 2,000' AGL
  • Broken at 8,000' AGL
Conditions
  • Rain
Becoming Oct-24 @ 14:00 - Oct-25 @ 00:00
Wind Visibility
330° at 12 knots 10,000+ meters
Clouds
  • Few at 2,500' AGL
  • Scattered at 8,000' AGL